Observation data for Northfield on 04/22/2019      Previous  Date  Next       Current Mesonet Observations  Soil Data  Daily Summary Page  Observations in Plain Language
KNOR 220500Z 17013KT 21/05 A2981 RMK A01 T02100046  RH  035%=      5-min Rain = 0
KNOR 220505Z 16013KT 20/05 A2982 RMK A01 T02040047  RH  036%=      5-min Rain = 0
KNOR 220510Z 17013KT 21/05 A2981 RMK A01 T02080045  RH  035%=      5-min Rain = 0
KNOR 220515Z 17013KT 21/05 A2981 RMK A01 T02060046  RH  036%=      5-min Rain = 0
KNOR 220520Z 17014KT 21/05 A2981 RMK A01 T02060046  RH  036%=      5-min Rain = 0
KNOR 220525Z 17015KT 21/05 A2982 RMK A01 T02070049  RH  036%=      5-min Rain = 0
KNOR 220530Z 17014KT 21/05 A2982 RMK A01 T02060054  RH  038%=      5-min Rain = 0
KNOR 220535Z 17015KT 20/06 A2982 RMK A01 T02020059  RH  040%=      5-min Rain = 0
KNOR 220540Z 17015KT 20/06 A2982 RMK A01 T02000064  RH  042%=      5-min Rain = 0
KNOR 220545Z 17016KT 20/07 A2982 RMK A01 T02010066  RH  043%=      5-min Rain = 0
KNOR 220550Z 17015KT 20/07 A2982 RMK A01 T01990067  RH  043%=      5-min Rain = 0
KNOR 220555Z 17014KT 20/07 A2982 RMK A01 T01980069  RH  044%=      5-min Rain = 0
KNOR 220600Z 17015KT 20/07 A2983 RMK A01 T01990071  RH  045%=      5-min Rain = 0
KNOR 220605Z 18015KT 20/07 A2983 RMK A01 T02020074  RH  045%=      5-min Rain = 0
KNOR 220610Z 18014G22KT 20/08 A2983 RMK A01 T02030078  RH  046%=      5-min Rain = 0
KNOR 220615Z 18014G19KT 20/08 A2983 RMK A01 T02020081  RH  047%=      5-min Rain = 0
KNOR 220620Z 18015G20KT 20/08 A2983 RMK A01 T02020084  RH  048%=      5-min Rain = 0
KNOR 220625Z 18015G20KT 20/09 A2983 RMK A01 T02040089  RH  049%=      5-min Rain = 0
KNOR 220630Z 18016KT 21/09 A2983 RMK A01 T02050092  RH  050%=      5-min Rain = 0
KNOR 220635Z 18015KT 21/09 A2983 RMK A01 T02050094  RH  050%=      5-min Rain = 0
KNOR 220640Z 18014KT 20/10 A2983 RMK A01 T02040095  RH  051%=      5-min Rain = 0
KNOR 220645Z 19013KT 20/10 A2983 RMK A01 T02010096  RH  052%=      5-min Rain = 0
KNOR 220650Z 19013G18KT 20/10 A2983 RMK A01 T02020097  RH  052%=      5-min Rain = 0
KNOR 220655Z 19015G21KT 21/10 A2983 RMK A01 T02050099  RH  052%=      5-min Rain = 0
KNOR 220700Z 19015G20KT 21/10 A2983 RMK A01 T02070100  RH  052%=      5-min Rain = 0
KNOR 220705Z 19016G21KT 21/10 A2983 RMK A01 T02080100  RH  052%=      5-min Rain = 0
KNOR 220710Z 19015G22KT 21/10 A2983 RMK A01 T02080101  RH  052%=      5-min Rain = 0
KNOR 220715Z 19016G22KT 21/10 A2983 RMK A01 T02080102  RH  052%=      5-min Rain = 0
KNOR 220720Z 19015G24KT 21/10 A2983 RMK A01 T02070102  RH  053%=      5-min Rain = 0
KNOR 220725Z 19015G20KT 21/10 A2983 RMK A01 T02080103  RH  053%=      5-min Rain = 0
KNOR 220730Z 19016G22KT 21/10 A2983 RMK A01 T02100104  RH  053%=      5-min Rain = 0
KNOR 220735Z 20014G20KT 21/11 A2983 RMK A01 T02100105  RH  053%=      5-min Rain = 0
KNOR 220740Z 20015KT 21/11 A2982 RMK A01 T02090106  RH  053%=      5-min Rain = 0
KNOR 220745Z 20013G19KT 21/11 A2982 RMK A01 T02080106  RH  054%=      5-min Rain = 0
KNOR 220750Z 20013G18KT 21/11 A2982 RMK A01 T02080108  RH  054%=      5-min Rain = 0
KNOR 220755Z 21014G23KT 21/11 A2982 RMK A01 T02090109  RH  055%=      5-min Rain = 0
KNOR 220800Z 21016G21KT 21/11 A2982 RMK A01 T02090110  RH  055%=      5-min Rain = 0
KNOR 220805Z 21017G24KT 21/11 A2981 RMK A01 T02100110  RH  055%=      5-min Rain = 0
KNOR 220810Z 21015G21KT 21/11 A2981 RMK A01 T02090111  RH  055%=      5-min Rain = 0
KNOR 220815Z 21015G22KT 21/11 A2981 RMK A01 T02070111  RH  056%=      5-min Rain = 0
KNOR 220820Z 21016G24KT 21/11 A2981 RMK A01 T02070111  RH  056%=      5-min Rain = 0
KNOR 220825Z 21015G20KT 21/11 A2982 RMK A01 T02050112  RH  057%=      5-min Rain = 0
KNOR 220830Z 22014G20KT 20/11 A2982 RMK A01 T02030113  RH  058%=      5-min Rain = 0
KNOR 220835Z 22013G18KT 20/11 A2982 RMK A01 T02010114  RH  059%=      5-min Rain = 0
KNOR 220840Z 23013G18KT 20/12 A2982 RMK A01 T02020115  RH  060%=      5-min Rain = 0
KNOR 220845Z 22013G18KT 20/12 A2982 RMK A01 T02010116  RH  060%=      5-min Rain = 0
KNOR 220850Z 22013G18KT 20/12 A2982 RMK A01 T02000118  RH  061%=      5-min Rain = 0
KNOR 220855Z 22013G19KT 20/12 A2981 RMK A01 T02000120  RH  062%=      5-min Rain = 0
KNOR 220900Z 22014G19KT 20/12 A2982 RMK A01 T02000121  RH  063%=      5-min Rain = 0
KNOR 220905Z 22014KT 20/12 A2982 RMK A01 T02020122  RH  062%=      5-min Rain = 0
KNOR 220910Z 22013G18KT 20/12 A2982 RMK A01 T02020123  RH  063%=      5-min Rain = 0
KNOR 220915Z 22013G20KT 20/12 A2983 RMK A01 T02020124  RH  063%=      5-min Rain = 0
KNOR 220920Z 22014G19KT 20/13 A2983 RMK A01 T02020125  RH  063%=      5-min Rain = 0
KNOR 220925Z 21013KT 20/13 A2983 RMK A01 T02010125  RH  064%=      5-min Rain = 0
KNOR 220930Z 22013G19KT 20/13 A2983 RMK A01 T02010126  RH  064%=      5-min Rain = 0
KNOR 220935Z 22013KT 20/13 A2983 RMK A01 T02010126  RH  065%=      5-min Rain = 0
KNOR 220940Z 23011G16KT 20/13 A2984 RMK A01 T02010127  RH  065%=      5-min Rain = 0
KNOR 220945Z 31010KT 20/13 A2986 RMK A01 T01990126  RH  065%=      5-min Rain = 0
KNOR 220950Z 33009G14KT 20/12 A2987 RMK A01 T01950120  RH  064%=      5-min Rain = 0
KNOR 220955Z 28007KT 20/12 A2987 RMK A01 T01950121  RH  065%=      5-min Rain = 0
KNOR 221000Z 25009G14KT 20/12 A2986 RMK A01 T02030124  RH  063%=      5-min Rain = 0
KNOR 221005Z 31009KT 20/12 A2988 RMK A01 T01990122  RH  064%=      5-min Rain = 0
KNOR 221010Z 30007G12KT 20/12 A2988 RMK A01 T01960122  RH  064%=      5-min Rain = 0
KNOR 221015Z 23009KT 20/12 A2987 RMK A01 T01950121  RH  065%=      5-min Rain = 0
KNOR 221020Z 29009KT 20/12 A2988 RMK A01 T01990123  RH  064%=      5-min Rain = 0
KNOR 221025Z 33008KT 20/12 A2989 RMK A01 T01950121  RH  065%=      5-min Rain = 0
KNOR 221030Z 33005KT 19/12 A2989 RMK A01 T01920120  RH  065%=      5-min Rain = 0
KNOR 221035Z 31006KT 19/12 A2989 RMK A01 T01870118  RH  067%=      5-min Rain = 0
KNOR 221040Z 29007KT 19/12 A2989 RMK A01 T01880117  RH  066%=      5-min Rain = 0
KNOR 221045Z 28009KT 19/12 A299 RMK A01 T01880116  RH  065%=      5-min Rain = 0
KNOR 221050Z 28008KT 19/12 A299 RMK A01 T01880115  RH  065%=      5-min Rain = 0
KNOR 221055Z 29008KT 19/11 A299 RMK A01 T01850114  RH  066%=      5-min Rain = 0
KNOR 221100Z 30008G13KT 18/11 A2991 RMK A01 T01820111  RH  065%=      5-min Rain = 0
KNOR 221105Z 30011KT 18/08 A2991 RMK A01 T01800078  RH  053%=      5-min Rain = 0
KNOR 221110Z 30012KT 17/05 A2991 RMK A01 T01740054  RH  046%=      5-min Rain = 0
KNOR 221115Z 30011KT 17/05 A2992 RMK A01 T01680048  RH  046%=      5-min Rain = 0
KNOR 221120Z 30008G14KT 16/05 A2992 RMK A01 T01630048  RH  048%=      5-min Rain = 0
KNOR 221125Z 31009KT 16/05 A2993 RMK A01 T01590048  RH  048%=      5-min Rain = 0
KNOR 221130Z 31009KT 16/05 A2993 RMK A01 T01550049  RH  050%=      5-min Rain = 0
KNOR 221135Z 32010KT 15/05 A2994 RMK A01 T01530051  RH  052%=      5-min Rain = 0
KNOR 221140Z 32010KT 15/05 A2994 RMK A01 T01510053  RH  053%=      5-min Rain = 0
KNOR 221145Z 32009KT 15/06 A2994 RMK A01 T01490055  RH  055%=      5-min Rain = 0
KNOR 221150Z 33009KT 15/06 A2994 RMK A01 T01470058  RH  056%=      5-min Rain = 0
KNOR 221155Z 33007KT 15/06 A2995 RMK A01 T01450060  RH  058%=      5-min Rain = 0
KNOR 221200Z 33006KT 14/06 A2995 RMK A01 T01440061  RH  059%=      5-min Rain = 0
KNOR 221205Z 33005KT 14/06 A2995 RMK A01 T01420063  RH  060%=      5-min Rain = 0
KNOR 221210Z 33006KT 14/06 A2995 RMK A01 T01410064  RH  061%=      5-min Rain = 0
KNOR 221215Z 33007KT 14/07 A2995 RMK A01 T01410065  RH  062%=      5-min Rain = 0
KNOR 221220Z 33006KT 14/07 A2996 RMK A01 T01410066  RH  062%=      5-min Rain = 0
KNOR 221225Z 33008KT 14/07 A2996 RMK A01 T01400067  RH  063%=      5-min Rain = 0
KNOR 221230Z 33007KT 14/07 A2996 RMK A01 T01400069  RH  064%=      5-min Rain = 0
KNOR 221235Z 33007KT 14/07 A2996 RMK A01 T01410070  RH  064%=      5-min Rain = 0
KNOR 221240Z 33006KT 14/07 A2997 RMK A01 T01410070  RH  064%=      5-min Rain = 0
KNOR 221245Z 33005KT 14/07 A2997 RMK A01 T01410071  RH  064%=      5-min Rain = 0
KNOR 221250Z 32006KT 14/07 A2998 RMK A01 T01410072  RH  065%=      5-min Rain = 0
KNOR 221255Z 31005KT 14/07 A2998 RMK A01 T01420073  RH  065%=      5-min Rain = 0
KNOR 221300Z 31006KT 14/08 A2999 RMK A01 T01430075  RH  065%=      5-min Rain = 0
KNOR 221305Z 31007KT 15/08 A2999 RMK A01 T01460076  RH  064%=      5-min Rain = 0
KNOR 221310Z 32008KT 15/08 A2999 RMK A01 T01510077  RH  063%=      5-min Rain = 0
KNOR 221315Z 32008KT 15/08 A2999 RMK A01 T01530078  RH  063%=      5-min Rain = 0
KNOR 221320Z 32008KT 15/08 A30 RMK A01 T01520078  RH  063%=      5-min Rain = 0
KNOR 221325Z 33006KT 15/08 A30 RMK A01 T01510080  RH  064%=      5-min Rain = 0
KNOR 221330Z 33007KT 15/08 A30 RMK A01 T01510080  RH  064%=      5-min Rain = 0
KNOR 221335Z 33006KT 15/08 A3001 RMK A01 T01520081  RH  064%=      5-min Rain = 0
KNOR 221340Z 33006KT 15/08 A3001 RMK A01 T01530081  RH  064%=      5-min Rain = 0
KNOR 221345Z 34007KT 15/08 A3001 RMK A01 T01540081  RH  064%=      5-min Rain = 0
KNOR 221350Z 33007KT 16/08 A3001 RMK A01 T01560082  RH  063%=      5-min Rain = 0
KNOR 221355Z 34008KT 16/08 A3002 RMK A01 T01560082  RH  063%=      5-min Rain = 0
KNOR 221400Z 35009KT 16/08 A3001 RMK A01 T01570082  RH  063%=      5-min Rain = 0
KNOR 221405Z 35010KT 16/08 A3001 RMK A01 T01570083  RH  063%=      5-min Rain = 0
KNOR 221410Z 35010KT 16/08 A3001 RMK A01 T01580084  RH  063%=      5-min Rain = 0
KNOR 221415Z 35012KT 16/08 A3001 RMK A01 T01580084  RH  063%=      5-min Rain = 0
KNOR 221420Z 35011KT 16/08 A3001 RMK A01 T01590084  RH  063%=      5-min Rain = 0
KNOR 221425Z 35012G18KT 16/09 A3001 RMK A01 T01600085  RH  063%=      5-min Rain = 0
KNOR 221430Z 35010G15KT 16/09 A3001 RMK A01 T01610086  RH  063%=      5-min Rain = 0
KNOR 221435Z 35011G16KT 16/09 A3002 RMK A01 T01620086  RH  063%=      5-min Rain = 0
KNOR 221440Z 36012G17KT 16/09 A3002 RMK A01 T01640087  RH  062%=      5-min Rain = 0
KNOR 221445Z 00010KT 17/09 A3002 RMK A01 T01650088  RH  062%=      5-min Rain = 0
KNOR 221450Z 00011KT 17/09 A3002 RMK A01 T01660089  RH  062%=      5-min Rain = 0
KNOR 221455Z 00011KT 17/09 A3002 RMK A01 T01670090  RH  062%=      5-min Rain = 0
KNOR 221500Z 00010G15KT 17/09 A3002 RMK A01 T01710092  RH  061%=      5-min Rain = 0
KNOR 221505Z 00011KT 17/09 A3002 RMK A01 T01730092  RH  061%=      5-min Rain = 0
KNOR 221510Z 01011KT 18/09 A3002 RMK A01 T01750093  RH  061%=      5-min Rain = 0
KNOR 221515Z 00012G19KT 18/09 A3002 RMK A01 T01760093  RH  060%=      5-min Rain = 0
KNOR 221520Z 36012KT 18/09 A3002 RMK A01 T01780094  RH  059%=      5-min Rain = 0
KNOR 221525Z 35011G16KT 18/09 A3002 RMK A01 T01810094  RH  059%=      5-min Rain = 0
KNOR 221530Z 01012G17KT 18/10 A3003 RMK A01 T01820095  RH  059%=      5-min Rain = 0
KNOR 221535Z 01012G18KT 18/10 A3003 RMK A01 T01800095  RH  059%=      5-min Rain = 0
KNOR 221540Z 01012KT 18/10 A3003 RMK A01 T01830097  RH  059%=      5-min Rain = 0
KNOR 221545Z 01011KT 19/10 A3003 RMK A01 T01850097  RH  058%=      5-min Rain = 0
KNOR 221550Z 02012KT 18/10 A3003 RMK A01 T01820096  RH  059%=      5-min Rain = 0
KNOR 221555Z 01012KT 19/10 A3003 RMK A01 T01900099  RH  057%=      5-min Rain = 0
KNOR 221600Z 01011KT 19/10 A3003 RMK A01 T01920099  RH  057%=      5-min Rain = 0
KNOR 221605Z 03011KT 19/10 A3004 RMK A01 T01930099  RH  056%=      5-min Rain = 0
KNOR 221610Z 03012KT 20/10 A3004 RMK A01 T01960100  RH  056%=      5-min Rain = 0
KNOR 221615Z 02011G17KT 20/10 A3004 RMK A01 T01970100  RH  055%=      5-min Rain = 0
KNOR 221620Z 00012KT 20/10 A3004 RMK A01 T01990100  RH  055%=      5-min Rain = 0
KNOR 221625Z 01012G17KT 20/10 A3004 RMK A01 T02030102  RH  054%=      5-min Rain = 0
KNOR 221630Z 03009G14KT 20/10 A3003 RMK A01 T02020103  RH  055%=      5-min Rain = 0
KNOR 221635Z 02012G18KT 20/10 A3003 RMK A01 T02010102  RH  055%=      5-min Rain = 0
KNOR 221640Z 01012G17KT 20/10 A3003 RMK A01 T01960100  RH  056%=      5-min Rain = 0
KNOR 221645Z 01012G17KT 20/10 A3004 RMK A01 T01950101  RH  056%=      5-min Rain = 0
KNOR 221650Z 02009G14KT 20/10 A3004 RMK A01 T01960102  RH  056%=      5-min Rain = 0
KNOR 221655Z 01011KT 20/10 A3003 RMK A01 T02000104  RH  056%=      5-min Rain = 0
KNOR 221700Z 00012G17KT 20/10 A3003 RMK A01 T01990102  RH  055%=      5-min Rain = 0
KNOR 221705Z 01012KT 20/10 A3003 RMK A01 T01980102  RH  056%=      5-min Rain = 0
KNOR 221710Z 02011G16KT 20/10 A3003 RMK A01 T01990103  RH  056%=      5-min Rain = 0
KNOR 221715Z 02011KT 20/10 A3003 RMK A01 T02000103  RH  056%=      5-min Rain = 0
KNOR 221720Z 02012G18KT 20/11 A3003 RMK A01 T02000105  RH  056%=      5-min Rain = 0
KNOR 221725Z 02013G19KT 20/10 A3003 RMK A01 T01990104  RH  056%=      5-min Rain = 0
KNOR 221730Z 02013KT 20/10 A3003 RMK A01 T02000104  RH  056%=      5-min Rain = 0
KNOR 221735Z 02015KT 20/10 A3002 RMK A01 T02010104  RH  056%=      5-min Rain = 0
KNOR 221740Z 02012G19KT 20/11 A3002 RMK A01 T02020106  RH  056%=      5-min Rain = 0
KNOR 221745Z 01015KT 20/11 A3002 RMK A01 T02020105  RH  055%=      5-min Rain = 0
KNOR 221750Z 02013G18KT 20/10 A3002 RMK A01 T01980104  RH  056%=      5-min Rain = 0
KNOR 221755Z 01012KT 20/11 A3002 RMK A01 T02010105  RH  056%=      5-min Rain = 0
KNOR 221800Z 01013G19KT 21/11 A3002 RMK A01 T02050106  RH  055%=      5-min Rain = 0
KNOR 221805Z 02013G18KT 21/11 A3001 RMK A01 T02050107  RH  055%=      5-min Rain = 0
KNOR 221810Z 03012G17KT 21/11 A3002 RMK A01 T02060108  RH  055%=      5-min Rain = 0
KNOR 221815Z 04010G16KT 21/11 A3002 RMK A01 T02060109  RH  056%=      5-min Rain = 0
KNOR 221820Z 02010G15KT 21/11 A3002 RMK A01 T02060109  RH  055%=      5-min Rain = 0
KNOR 221825Z 03011G17KT 21/11 A3002 RMK A01 T02100110  RH  055%=      5-min Rain = 0
KNOR 221830Z 02012G17KT 21/11 A3002 RMK A01 T02100110  RH  054%=      5-min Rain = 0
KNOR 221835Z 02011G16KT 21/11 A3003 RMK A01 T02090108  RH  054%=      5-min Rain = 0
KNOR 221840Z 02012G17KT 20/11 A3004 RMK A01 T02040107  RH  055%=      5-min Rain = 0
KNOR 221845Z 03011G16KT 21/11 A3004 RMK A01 T02050108  RH  056%=      5-min Rain = 0
KNOR 221850Z 03010KT 21/11 A3004 RMK A01 T02070110  RH  056%=      5-min Rain = 0
KNOR 221855Z 03011KT 21/11 A3004 RMK A01 T02070111  RH  056%=      5-min Rain = 0
KNOR 221900Z 03010KT 21/11 A3004 RMK A01 T02050109  RH  056%=      5-min Rain = 0
KNOR 221905Z 05010G15KT 21/11 A3003 RMK A01 T02060110  RH  056%=      5-min Rain = 0
KNOR 221910Z 04010KT 20/11 A3003 RMK A01 T02030111  RH  057%=      5-min Rain = 0
KNOR 221915Z 03011G17KT 20/11 A3003 RMK A01 T02020110  RH  057%=      5-min Rain = 0
KNOR 221920Z 03010KT 20/11 A3004 RMK A01 T02020112  RH  058%=      5-min Rain = 0
KNOR 221925Z 05009G14KT 20/11 A3004 RMK A01 T02010113  RH  059%=      5-min Rain = 0
KNOR 221930Z 04011KT 20/11 A3005 RMK A01 T02040112  RH  058%=      5-min Rain = 0
KNOR 221935Z 04010KT 21/11 A3005 RMK A01 T02050112  RH  057%=      5-min Rain = 0
KNOR 221940Z 03012KT 21/11 A3004 RMK A01 T02070114  RH  057%=      5-min Rain = 0
KNOR 221945Z 04010KT 21/11 A3004 RMK A01 T02080114  RH  057%=      5-min Rain = 0
KNOR 221950Z 03010KT 21/11 A3004 RMK A01 T02080114  RH  057%=      5-min Rain = 0
KNOR 221955Z 03011KT 21/11 A3004 RMK A01 T02090114  RH  056%=      5-min Rain = 0
KNOR 222000Z 02010G15KT 21/12 A3004 RMK A01 T02090115  RH  057%=      5-min Rain = 0
KNOR 222005Z 03011KT 21/11 A3004 RMK A01 T02080114  RH  057%=      5-min Rain = 0
KNOR 222010Z 04011KT 21/11 A3004 RMK A01 T02050114  RH  058%=      5-min Rain = 0
KNOR 222015Z 04012KT 20/11 A3004 RMK A01 T02020114  RH  059%=      5-min Rain = 0
KNOR 222020Z 04011KT 20/12 A3003 RMK A01 T02010115  RH  060%=      5-min Rain = 0
KNOR 222025Z 03013KT 20/11 A3003 RMK A01 T02010114  RH  059%=      5-min Rain = 0
KNOR 222030Z 04011KT 20/12 A3003 RMK A01 T02010116  RH  060%=      5-min Rain = 0
KNOR 222035Z 04010G16KT 20/12 A3003 RMK A01 T02030117  RH  060%=      5-min Rain = 0
KNOR 222040Z 04012KT 20/12 A3003 RMK A01 T02030117  RH  060%=      5-min Rain = 0
KNOR 222045Z 04013KT 20/12 A3002 RMK A01 T02040117  RH  060%=      5-min Rain = 0
KNOR 222050Z 04011G16KT 21/12 A3002 RMK A01 T02050118  RH  060%=      5-min Rain = 0
KNOR 222055Z 03010KT 21/12 A3002 RMK A01 T02070119  RH  059%=      5-min Rain = 0
KNOR 222100Z 04010KT 21/12 A3003 RMK A01 T02070120  RH  059%=      5-min Rain = 0
KNOR 222105Z 03011KT 21/12 A3003 RMK A01 T02050119  RH  060%=      5-min Rain = 0
KNOR 222110Z 03012KT 21/12 A3003 RMK A01 T02050119  RH  060%=      5-min Rain = 0
KNOR 222115Z 02009G14KT 20/12 A3004 RMK A01 T02030118  RH  060%=      5-min Rain = 0
KNOR 222120Z 02008KT 20/12 A3005 RMK A01 T02010119  RH  061%=      5-min Rain = 0
KNOR 222125Z 03010KT 20/12 A3004 RMK A01 T01990119  RH  062%=      5-min Rain = 0
KNOR 222130Z 03012KT 20/12 A3002 RMK A01 T01990119  RH  062%=      5-min Rain = 0
KNOR 222135Z 03011G16KT 20/12 A3002 RMK A01 T01980122  RH  064%=      5-min Rain = 0
KNOR 222140Z 03011G16KT 20/12 A3002 RMK A01 T02000122  RH  063%=      5-min Rain = 0
KNOR 222145Z 02011KT 20/12 A3001 RMK A01 T02020121  RH  062%=      5-min Rain = 0
KNOR 222150Z 04008G13KT 20/12 A3002 RMK A01 T02040122  RH  062%=      5-min Rain = 0
KNOR 222155Z 04007KT 21/12 A3003 RMK A01 T02050122  RH  061%=      5-min Rain = 0
KNOR 222200Z 05009KT 20/12 A3002 RMK A01 T02040122  RH  062%=      5-min Rain = 0
KNOR 222205Z 05010KT 20/12 A3002 RMK A01 T02040122  RH  062%=      5-min Rain = 0
KNOR 222210Z 05010KT 20/12 A3002 RMK A01 T02030121  RH  062%=      5-min Rain = 0
KNOR 222215Z 04010KT 20/12 A3003 RMK A01 T02020121  RH  062%=      5-min Rain = 0
KNOR 222220Z 05008G13KT 20/12 A3003 RMK A01 T02020122  RH  062%=      5-min Rain = 0
KNOR 222225Z 03012KT 20/12 A3001 RMK A01 T02010121  RH  062%=      5-min Rain = 0
KNOR 222230Z 04012G18KT 20/12 A30 RMK A01 T02000120  RH  062%=      5-min Rain = 0
KNOR 222235Z 04006G11KT 20/12 A3002 RMK A01 T02000121  RH  063%=      5-min Rain = 0
KNOR 222240Z 05005KT 20/12 A3005 RMK A01 T01980119  RH  063%=      5-min Rain = 0
KNOR 222245Z 03008KT 20/12 A3003 RMK A01 T01980121  RH  063%=      5-min Rain = 0
KNOR 222250Z 04007KT 20/12 A3003 RMK A01 T01990122  RH  063%=      5-min Rain = 0
KNOR 222255Z 04009KT 20/12 A3003 RMK A01 T01980121  RH  063%=      5-min Rain = 0
KNOR 222300Z 05004KT 20/12 A3005 RMK A01 T01980122  RH  064%=      5-min Rain = 0
KNOR 222305Z 05005KT 20/12 A3005 RMK A01 T01970120  RH  063%=      5-min Rain = 0
KNOR 222310Z 04006KT 20/12 A3005 RMK A01 T01950124  RH  066%=      5-min Rain = 0
KNOR 222315Z 03003KT 19/13 A3005 RMK A01 T01920128  RH  069%=      5-min Rain = 0
KNOR 222320Z 05004KT 19/13 A3006 RMK A01 T01920129  RH  069%=      5-min Rain = 0
KNOR 222325Z 04006KT 19/13 A3005 RMK A01 T01930129  RH  069%=      5-min Rain = 0
KNOR 222330Z 04006KT 19/13 A3004 RMK A01 T01920129  RH  069%=      5-min Rain = 0
KNOR 222335Z 05006KT 19/13 A3004 RMK A01 T01910128  RH  069%=      5-min Rain = 0
KNOR 222340Z 06006KT 19/13 A3004 RMK A01 T01920127  RH  068%=      5-min Rain = 0
KNOR 222345Z 05006KT 19/13 A3004 RMK A01 T01920127  RH  069%=      5-min Rain = 0
KNOR 222350Z 03007KT 19/13 A3003 RMK A01 T01900128  RH  070%=      5-min Rain = 0
KNOR 222355Z 04007KT 19/13 A3003 RMK A01 T01890128  RH  070%=      5-min Rain = 0
KNOR 230000Z 05007KT 19/13 A3003 RMK A01 T01890128  RH  070%=      5-min Rain = 0
KNOR 230005Z 05008KT 19/13 A3003 RMK A01 T01890127  RH  070%=      5-min Rain = 0
KNOR 230010Z 05007KT 19/13 A3003 RMK A01 T01870127  RH  071%=      5-min Rain = 0
KNOR 230015Z 05006KT 19/13 A3003 RMK A01 T01860128  RH  072%=      5-min Rain = 0
KNOR 230020Z 04006KT 19/13 A3003 RMK A01 T01850129  RH  073%=      5-min Rain = 0
KNOR 230025Z 03006KT 18/13 A3004 RMK A01 T01840129  RH  073%=      5-min Rain = 0
KNOR 230030Z 04005KT 18/13 A3004 RMK A01 T01830130  RH  074%=      5-min Rain = 0
KNOR 230035Z 05002KT 18/13 A3005 RMK A01 T01820131  RH  075%=      5-min Rain = 0.01
KNOR 230040Z 36006KT 18/14 A3005 RMK A01 T01750138  RH  082%=      5-min Rain = 0.03
KNOR 230045Z 01006KT 17/14 A3005 RMK A01 T01700141  RH  087%=      5-min Rain = 0.01
KNOR 230050Z 00008KT 17/14 A3004 RMK A01 T01690142  RH  088%=      5-min Rain = 0
KNOR 230055Z 00008KT 17/14 A3004 RMK A01 T01680141  RH  088%=      5-min Rain = 0
KNOR 230100Z 35007KT 17/14 A3004 RMK A01 T01670142  RH  089%=      5-min Rain = 0
KNOR 230105Z 00008KT 17/14 A3004 RMK A01 T01660142  RH  089%=      5-min Rain = 0.01
KNOR 230110Z 01010KT 17/14 A3002 RMK A01 T01660144  RH  091%=      5-min Rain = 0
KNOR 230115Z 01011KT 16/14 A3001 RMK A01 T01640144  RH  092%=      5-min Rain = 0.01
KNOR 230120Z 00012KT 16/14 A3001 RMK A01 T01630143  RH  092%=      5-min Rain = 0
KNOR 230125Z 00013KT 16/14 A30 RMK A01 T01630142  RH  091%=      5-min Rain = 0
KNOR 230130Z 00013KT 16/14 A2999 RMK A01 T01630142  RH  091%=      5-min Rain = 0
KNOR 230135Z 00012G17KT 16/14 A2999 RMK A01 T01620142  RH  091%=      5-min Rain = 0
KNOR 230140Z 01011KT 16/14 A2999 RMK A01 T01630141  RH  091%=      5-min Rain = 0
KNOR 230145Z 01009KT 16/14 A2999 RMK A01 T01630141  RH  091%=      5-min Rain = 0
KNOR 230150Z 01006KT 16/14 A3001 RMK A01 T01630140  RH  090%=      5-min Rain = 0
KNOR 230155Z 35005KT 16/14 A3001 RMK A01 T01640140  RH  090%=      5-min Rain = 0
KNOR 230200Z 31004KT 16/14 A3002 RMK A01 T01630141  RH  091%=      5-min Rain = 0
KNOR 230205Z 32002KT 16/14 A3003 RMK A01 T01630142  RH  091%=      5-min Rain = 0
KNOR 230210Z 03004KT 16/14 A3002 RMK A01 T01620142  RH  092%=      5-min Rain = 0.02
KNOR 230215Z 03006KT 16/14 A3001 RMK A01 T01620143  RH  092%=      5-min Rain = 0.01
KNOR 230220Z 03003KT 16/14 A3003 RMK A01 T01610143  RH  093%=      5-min Rain = 0.01
KNOR 230225Z 32001KT 16/14 A3003 RMK A01 T01610144  RH  094%=      5-min Rain = 0
KNOR 230230Z 29002KT 16/14 A3004 RMK A01 T01600144  RH  094%=      5-min Rain = 0
KNOR 230235Z 19003KT 16/14 A3006 RMK A01 T01600144  RH  094%=      5-min Rain = 0.01
KNOR 230240Z 04005KT 16/15 A3003 RMK A01 T01600145  RH  095%=      5-min Rain = 0
KNOR 230245Z 00005KT 16/15 A3003 RMK A01 T01590146  RH  096%=      5-min Rain = 0.01
KNOR 230250Z 35004KT 16/15 A3004 RMK A01 T01580146  RH  096%=      5-min Rain = 0.01
KNOR 230255Z 06002KT 16/15 A3005 RMK A01 T01580146  RH  096%=      5-min Rain = 0
KNOR 230300Z 15001KT 16/15 A3005 RMK A01 T01590146  RH  096%=      5-min Rain = 0.01
KNOR 230305Z 03001KT 16/15 A3005 RMK A01 T01590147  RH  097%=      5-min Rain = 0
KNOR 230310Z 00003KT 16/15 A3005 RMK A01 T01590147  RH  097%=      5-min Rain = 0.01
KNOR 230315Z 36002KT 16/15 A3005 RMK A01 T01580146  RH  097%=      5-min Rain = 0
KNOR 230320Z 00003KT 16/15 A3005 RMK A01 T01580147  RH  097%=      5-min Rain = 0
KNOR 230325Z 36004KT 16/15 A3005 RMK A01 T01580147  RH  097%=      5-min Rain = 0
KNOR 230330Z 00003KT 16/15 A3005 RMK A01 T01580146  RH  097%=      5-min Rain = 0
KNOR 230335Z 35003KT 16/15 A3006 RMK A01 T01570146  RH  097%=      5-min Rain = 0
KNOR 230340Z 33006KT 16/14 A3006 RMK A01 T01550144  RH  097%=      5-min Rain = 0.02
KNOR 230345Z 34007KT 15/14 A3005 RMK A01 T01530143  RH  098%=      5-min Rain = 0.02
KNOR 230350Z 35008G14KT 15/14 A3005 RMK A01 T01530142  RH  098%=      5-min Rain = 0.02
KNOR 230355Z 00009KT 15/14 A3005 RMK A01 T01520141  RH  097%=      5-min Rain = 0.01
KNOR 230400Z 00008KT 15/14 A3005 RMK A01 T01520140  RH  097%=      5-min Rain = 0.02
KNOR 230405Z 35008KT 15/14 A3005 RMK A01 T01510139  RH  097%=      5-min Rain = 0.02
KNOR 230410Z 34007KT 15/14 A3005 RMK A01 T01500139  RH  097%=      5-min Rain = 0
KNOR 230415Z 33009KT 15/14 A3006 RMK A01 T01500139  RH  097%=      5-min Rain = 0.01
KNOR 230420Z 34010KT 15/14 A3005 RMK A01 T01490138  RH  098%=      5-min Rain = 0.05
KNOR 230425Z 34010KT 15/14 A3005 RMK A01 T01470138  RH  098%=      5-min Rain = 0.03
KNOR 230430Z 34010KT 15/14 A3005 RMK A01 T01460137  RH  098%=      5-min Rain = 0.02
KNOR 230435Z 34010KT 15/14 A3004 RMK A01 T01450136  RH  098%=      5-min Rain = 0.02
KNOR 230440Z 34011KT 14/14 A3004 RMK A01 T01440136  RH  098%=      5-min Rain = 0.03
KNOR 230445Z 33010G15KT 14/14 A3004 RMK A01 T01430135  RH  099%=      5-min Rain = 0.03
KNOR 230450Z 33011KT 14/13 A3004 RMK A01 T01420134  RH  099%=      5-min Rain = 0.03
KNOR 230455Z 35011KT 14/13 A3004 RMK A01 T01410133  RH  099%=      5-min Rain = 0.02

Page generated in 0.0091 seconds.